createdAt,value
2019-05-20T00:02:28.954Z,14.40
2019-05-20T00:05:22.551Z,14.30
2019-05-20T00:07:51.859Z,14.30
2019-05-20T00:10:22.783Z,14.30
2019-05-20T00:12:52.953Z,14.30
2019-05-20T00:15:27.274Z,14.30
2019-05-20T00:17:55.761Z,14.20
2019-05-20T00:20:25.784Z,14.20
2019-05-20T00:22:57.975Z,14.20
2019-05-20T00:25:28.979Z,14.20
2019-05-20T00:27:57.137Z,14.20
2019-05-20T00:33:17.875Z,14.10
2019-05-20T00:35:47.311Z,14.10
2019-05-20T00:38:42.411Z,14.10
2019-05-20T00:41:17.942Z,14.10
2019-05-20T00:43:46.418Z,14.10
2019-05-20T00:46:41.512Z,14.10
2019-05-20T00:49:13.034Z,14.10
2019-05-20T00:51:45.266Z,14.00
2019-05-20T00:54:14.489Z,14.00
2019-05-20T00:56:53.085Z,14.00
2019-05-20T00:59:25.600Z,14.00
2019-05-20T01:01:58.282Z,14.00
2019-05-20T01:04:28.429Z,14.00
2019-05-20T01:06:59.025Z,14.00
2019-05-20T01:09:31.764Z,13.90
2019-05-20T01:11:59.984Z,13.90
2019-05-20T01:14:33.537Z,13.90
2019-05-20T01:17:07.182Z,13.90
2019-05-20T01:19:55.202Z,13.90
2019-05-20T01:22:23.457Z,13.90
2019-05-20T01:24:56.442Z,13.90
2019-05-20T01:27:27.456Z,13.90
2019-05-20T01:29:58.465Z,13.80
2019-05-20T01:32:46.516Z,13.80
2019-05-20T01:35:15.014Z,13.80
2019-05-20T01:37:45.974Z,13.80
2019-05-20T01:40:33.808Z,13.80
2019-05-20T01:43:02.412Z,13.80
2019-05-20T01:45:30.786Z,13.70
2019-05-20T01:54:36.083Z,13.70
2019-05-20T01:57:04.309Z,13.60
2019-05-20T01:59:32.422Z,13.70
2019-05-20T02:04:48.848Z,13.60
2019-05-20T02:07:16.427Z,13.60
2019-05-20T02:09:43.971Z,13.60
2019-05-20T02:12:11.591Z,13.60
2019-05-20T02:14:44.808Z,13.50
2019-05-20T02:17:13.491Z,13.50
2019-05-20T02:19:41.063Z,13.50
2019-05-20T02:22:08.596Z,13.50
2019-05-20T02:24:36.074Z,13.40
2019-05-20T02:27:03.668Z,13.40
2019-05-20T02:29:32.428Z,13.40
2019-05-20T02:32:00.093Z,13.40
2019-05-20T02:34:28.606Z,13.40
2019-05-20T02:36:57.079Z,13.40
2019-05-20T02:39:26.709Z,13.30
2019-05-20T02:41:54.791Z,13.30
2019-05-20T02:44:22.467Z,13.30
2019-05-20T02:46:50.088Z,13.30
2019-05-20T02:49:17.802Z,13.20
2019-05-20T02:51:45.404Z,13.20
2019-05-20T02:54:12.898Z,13.20
2019-05-20T02:56:40.433Z,13.20
2019-05-20T02:59:07.933Z,13.20
2019-05-20T03:01:35.673Z,13.20
2019-05-20T03:04:11.562Z,13.10
2019-05-20T03:06:32.592Z,13.10
2019-05-20T03:09:00.075Z,13.10
2019-05-20T03:11:27.648Z,13.10
2019-05-20T03:13:57.880Z,13.10
2019-05-20T03:16:25.667Z,13.10
2019-05-20T03:18:53.233Z,13.10
2019-05-20T03:21:20.807Z,13.10
2019-05-20T03:23:48.639Z,13.00
2019-05-20T03:26:16.291Z,13.00
2019-05-20T03:28:43.969Z,13.00
2019-05-20T03:31:11.444Z,13.00
2019-05-20T03:33:39.024Z,13.00
2019-05-20T03:36:07.797Z,13.00
2019-05-20T03:38:35.350Z,13.00
2019-05-20T03:41:02.854Z,13.00
2019-05-20T03:43:30.467Z,13.00
2019-05-20T03:45:58.149Z,13.00
2019-05-20T03:48:25.987Z,13.00
2019-05-20T03:50:54.826Z,13.00
2019-05-20T03:53:22.413Z,13.00
2019-05-20T03:55:50.022Z,13.00
2019-05-20T03:58:20.601Z,13.00
2019-05-20T04:00:48.208Z,13.00
2019-05-20T04:03:16.062Z,13.00
2019-05-20T04:05:44.406Z,13.10
2019-05-20T04:08:12.264Z,13.10
2019-05-20T04:10:40.033Z,13.10
2019-05-20T04:13:07.890Z,13.10
2019-05-20T04:15:35.508Z,13.20
2019-05-20T04:18:04.136Z,13.20
2019-05-20T04:20:31.821Z,13.20
2019-05-20T04:22:59.434Z,13.20
2019-05-20T04:25:27.113Z,13.20
2019-05-20T04:27:58.730Z,13.30
2019-05-20T04:30:26.282Z,13.30
2019-05-20T04:32:53.698Z,13.30
2019-05-20T04:35:23.652Z,13.30
2019-05-20T04:37:51.262Z,13.30
2019-05-20T04:40:18.871Z,13.40
2019-05-20T04:42:46.602Z,13.30
2019-05-20T04:45:14.642Z,13.30
2019-05-20T04:48:04.414Z,13.30
2019-05-20T04:50:32.985Z,13.30
2019-05-20T04:53:00.640Z,13.30
2019-05-20T04:55:28.239Z,13.40
2019-05-20T04:57:56.110Z,13.40
2019-05-20T05:00:48.788Z,13.40
2019-05-20T05:03:17.735Z,13.30
2019-05-20T05:05:46.058Z,13.40
2019-05-20T05:08:14.222Z,13.30
2019-05-20T05:10:42.928Z,13.30
2019-05-20T05:13:10.491Z,13.40
2019-05-20T05:15:37.968Z,13.40
2019-05-20T05:18:05.550Z,13.40
2019-05-20T05:20:33.335Z,13.40
2019-05-20T05:23:01.188Z,13.40
2019-05-20T05:25:29.096Z,13.40
2019-05-20T05:27:56.899Z,13.50
2019-05-20T05:30:24.407Z,13.40
2019-05-20T05:32:51.921Z,13.50
2019-05-20T05:35:19.427Z,13.50
2019-05-20T05:37:47.365Z,13.50
2019-05-20T05:40:15.444Z,13.60
2019-05-20T05:42:42.905Z,13.60
2019-05-20T05:45:12.194Z,13.60
2019-05-20T05:47:39.680Z,13.70
2019-05-20T05:50:08.599Z,13.70
2019-05-20T05:52:35.944Z,13.80
2019-05-20T05:55:03.657Z,13.80
2019-05-20T05:57:31.116Z,13.90
2019-05-20T05:59:58.628Z,13.90
2019-05-20T06:02:26.082Z,14.00
2019-05-20T06:04:53.574Z,14.10
2019-05-20T06:07:21.597Z,14.10
2019-05-20T06:09:49.161Z,14.20
2019-05-20T06:12:16.744Z,14.20
2019-05-20T06:14:44.413Z,14.30
2019-05-20T06:17:12.273Z,14.30
2019-05-20T06:19:39.869Z,14.40
2019-05-20T06:22:07.310Z,14.40
2019-05-20T06:24:34.738Z,14.50
2019-05-20T06:27:02.206Z,14.50
2019-05-20T06:29:29.687Z,14.50
2019-05-20T06:31:57.699Z,14.60
2019-05-20T06:34:25.508Z,14.60
2019-05-20T06:36:54.989Z,14.60
2019-05-20T06:39:22.368Z,14.70
2019-05-20T06:41:49.706Z,14.80
2019-05-20T06:44:17.282Z,14.80
2019-05-20T06:46:45.227Z,14.90
2019-05-20T06:49:12.778Z,15.00
2019-05-20T06:51:40.469Z,15.00
2019-05-20T06:54:08.156Z,15.10
2019-05-20T06:56:35.915Z,15.10
2019-05-20T06:59:04.613Z,15.20
2019-05-20T07:01:32.435Z,15.20
2019-05-20T07:04:00.100Z,15.30
2019-05-20T07:06:44.884Z,15.30
2019-05-20T07:08:57.286Z,15.30
2019-05-20T07:11:25.044Z,15.40
2019-05-20T07:13:53.026Z,15.40
2019-05-20T07:16:20.399Z,15.40
2019-05-20T07:18:49.703Z,15.40
2019-05-20T07:21:17.361Z,15.40
2019-05-20T07:23:46.124Z,15.50
2019-05-20T07:26:13.794Z,15.50
2019-05-20T07:28:43.641Z,15.50
2019-05-20T07:31:11.338Z,15.60
2019-05-20T07:33:38.918Z,15.60
2019-05-20T07:36:09.873Z,15.60
2019-05-20T07:38:35.864Z,15.70
2019-05-20T07:41:03.408Z,15.80
2019-05-20T07:43:31.087Z,15.90
2019-05-20T07:45:59.984Z,16.00
2019-05-20T07:48:27.892Z,16.00
2019-05-20T07:51:15.623Z,16.10
2019-05-20T07:53:43.581Z,16.20
2019-05-20T07:56:15.339Z,16.40
2019-05-20T07:58:47.448Z,16.50
2019-05-20T08:01:15.179Z,16.60
2019-05-20T08:03:42.727Z,16.60
2019-05-20T08:06:10.667Z,16.70
2019-05-20T08:08:38.329Z,16.80
2019-05-20T08:11:05.871Z,16.90
2019-05-20T08:13:33.338Z,17.00
2019-05-20T08:16:01.001Z,17.00
2019-05-20T08:18:28.538Z,17.10
2019-05-20T08:20:56.484Z,17.20
2019-05-20T08:23:24.353Z,17.30
2019-05-20T08:25:51.926Z,17.50
2019-05-20T08:28:19.554Z,17.60
2019-05-20T08:30:49.066Z,17.70
2019-05-20T08:33:16.513Z,17.90
2019-05-20T08:35:44.027Z,18.00
2019-05-20T08:38:12.684Z,18.10
2019-05-20T08:40:41.355Z,18.40
2019-05-20T08:43:09.682Z,18.50
2019-05-20T08:45:37.436Z,18.70
2019-05-20T08:48:04.999Z,18.90
2019-05-20T08:50:32.530Z,19.00
2019-05-20T08:53:00.001Z,19.10
2019-05-20T08:55:27.509Z,19.30
2019-05-20T08:58:00.403Z,19.40
2019-05-20T09:00:28.065Z,19.60
2019-05-20T09:02:56.028Z,19.80
2019-05-20T09:05:23.535Z,20.00
2019-05-20T09:08:02.195Z,20.10
2019-05-20T09:10:20.412Z,20.20
2019-05-20T09:12:47.894Z,20.40
2019-05-20T09:15:16.056Z,20.50
2019-05-20T09:17:44.200Z,20.60
2019-05-20T09:20:12.179Z,20.60
2019-05-20T09:22:39.615Z,20.70
2019-05-20T09:25:08.094Z,20.60
2019-05-20T09:27:37.138Z,20.70
2019-05-20T09:30:06.135Z,20.80
2019-05-20T09:32:35.449Z,21.00
2019-05-20T09:35:04.253Z,21.10
2019-05-20T09:37:33.323Z,21.10
2019-05-20T09:40:00.982Z,21.10
2019-05-20T09:42:28.503Z,21.10
2019-05-20T09:44:57.135Z,21.20
2019-05-20T09:47:24.626Z,21.30
2019-05-20T09:49:52.326Z,21.40
2019-05-20T09:52:19.892Z,21.40
2019-05-20T09:54:47.598Z,21.60
2019-05-20T09:57:15.012Z,21.70
2019-05-20T09:59:43.825Z,21.80
2019-05-20T10:02:13.864Z,21.80
2019-05-20T10:04:41.340Z,21.80
2019-05-20T10:07:08.952Z,21.90
2019-05-20T10:09:36.482Z,21.90
2019-05-20T10:12:23.661Z,22.10
2019-05-20T10:14:52.838Z,22.20
2019-05-20T10:17:20.530Z,22.30
2019-05-20T10:19:48.076Z,22.40
2019-05-20T10:22:15.666Z,22.50
2019-05-20T10:24:43.127Z,22.60
2019-05-20T10:27:10.601Z,22.80
2019-05-20T10:29:37.990Z,22.90
2019-05-20T10:32:05.457Z,23.00
2019-05-20T10:34:32.914Z,23.00
2019-05-20T10:37:00.431Z,23.10
2019-05-20T10:39:27.987Z,23.00
2019-05-20T10:41:56.130Z,23.10
2019-05-20T10:44:23.852Z,23.10
2019-05-20T10:46:51.482Z,23.20
2019-05-20T10:49:19.112Z,23.30
2019-05-20T10:51:46.684Z,23.40
2019-05-20T10:54:14.293Z,23.50
2019-05-20T10:56:41.963Z,23.70
2019-05-20T10:59:11.946Z,23.80
2019-05-20T11:01:38.930Z,23.90
2019-05-20T11:04:06.470Z,23.90
2019-05-20T11:06:33.986Z,23.80
2019-05-20T11:09:13.612Z,23.80
2019-05-20T11:11:31.383Z,23.80
2019-05-20T11:13:59.123Z,23.90
2019-05-20T11:16:26.636Z,24.00
2019-05-20T11:18:55.369Z,24.00
2019-05-20T11:21:22.879Z,24.10
2019-05-20T11:23:50.750Z,24.10
2019-05-20T11:26:18.054Z,24.20
2019-05-20T11:28:45.705Z,24.20
2019-05-20T11:31:13.058Z,24.30
2019-05-20T11:33:40.587Z,24.30
2019-05-20T11:36:08.098Z,24.40
2019-05-20T11:38:35.489Z,24.40
2019-05-20T11:41:03.121Z,24.40
2019-05-20T11:43:30.645Z,24.40
2019-05-20T11:45:58.186Z,24.30
2019-05-20T11:48:25.656Z,24.40
2019-05-20T11:50:53.177Z,24.40
2019-05-20T11:53:20.940Z,24.50
2019-05-20T11:55:49.584Z,24.50
2019-05-20T11:58:17.222Z,24.50
2019-05-20T12:00:47.495Z,24.50
2019-05-20T12:03:14.947Z,24.50
2019-05-20T12:05:42.610Z,24.50
2019-05-20T12:08:10.250Z,24.50
2019-05-20T12:10:37.711Z,24.60
2019-05-20T12:13:05.444Z,24.70
2019-05-20T12:15:33.107Z,24.70
2019-05-20T12:18:00.578Z,24.80
2019-05-20T12:20:28.091Z,24.90
2019-05-20T12:22:55.994Z,24.90
2019-05-20T12:25:23.504Z,24.90
2019-05-20T12:27:51.006Z,25.00
2019-05-20T12:30:18.903Z,25.00
2019-05-20T12:32:46.404Z,25.10
2019-05-20T12:35:14.660Z,25.00
2019-05-20T12:37:45.541Z,25.00
2019-05-20T12:40:12.859Z,25.10
2019-05-20T12:42:40.330Z,25.10
2019-05-20T12:45:08.678Z,25.10
2019-05-20T12:47:36.172Z,25.10
2019-05-20T12:50:04.303Z,25.10
2019-05-20T12:52:31.571Z,25.10
2019-05-20T12:55:07.853Z,25.10
2019-05-20T12:57:28.612Z,25.10
2019-05-20T13:00:15.971Z,25.10
2019-05-20T13:02:43.506Z,25.20
2019-05-20T13:05:11.326Z,25.20
2019-05-20T13:07:39.027Z,25.30
2019-05-20T13:10:26.527Z,25.30
2019-05-20T13:12:38.743Z,25.30
2019-05-20T13:15:07.114Z,25.30
2019-05-20T13:17:34.677Z,25.30
2019-05-20T13:20:02.246Z,25.30
2019-05-20T13:22:29.697Z,25.30
2019-05-20T13:24:57.209Z,25.30
2019-05-20T13:27:24.791Z,25.30
2019-05-20T13:29:52.361Z,25.30
2019-05-20T13:32:20.015Z,25.30
2019-05-20T13:34:47.459Z,25.30
2019-05-20T13:37:14.785Z,25.30
2019-05-20T13:39:42.999Z,25.30
2019-05-20T13:42:10.563Z,25.30
2019-05-20T13:44:38.028Z,25.30
2019-05-20T13:47:05.501Z,25.30
2019-05-20T13:49:33.264Z,25.30
2019-05-20T13:52:00.749Z,25.30
2019-05-20T13:54:28.347Z,25.30
2019-05-20T13:56:55.797Z,25.40
2019-05-20T13:59:23.365Z,25.40
2019-05-20T14:01:50.914Z,25.30
2019-05-20T14:04:18.471Z,25.30
2019-05-20T14:06:45.909Z,25.40
2019-05-20T14:09:13.444Z,25.40
2019-05-20T14:11:40.907Z,25.40
2019-05-20T14:14:08.697Z,25.30
2019-05-20T14:16:36.113Z,25.40
2019-05-20T14:19:03.565Z,25.40
2019-05-20T14:21:31.284Z,25.40
2019-05-20T14:23:58.799Z,25.40
2019-05-20T14:26:26.354Z,25.40
2019-05-20T14:28:53.966Z,25.40
2019-05-20T14:31:21.490Z,25.40
2019-05-20T14:33:48.801Z,25.30
2019-05-20T14:36:37.931Z,25.30
2019-05-20T14:38:47.295Z,25.30
2019-05-20T14:41:21.725Z,25.40
2019-05-20T14:43:44.295Z,25.40
2019-05-20T14:46:11.827Z,25.40
2019-05-20T14:48:39.288Z,25.50
2019-05-20T14:51:06.785Z,25.50
2019-05-20T14:53:34.174Z,25.50
2019-05-20T14:56:01.636Z,25.50
2019-05-20T14:58:29.338Z,25.50
2019-05-20T15:01:01.935Z,25.50
2019-05-20T15:03:29.550Z,25.50
2019-05-20T15:05:57.088Z,25.50
2019-05-20T15:08:24.658Z,25.50
2019-05-20T15:10:52.279Z,25.50
2019-05-20T15:13:19.757Z,25.60
2019-05-20T15:15:50.222Z,25.60
2019-05-20T15:18:17.698Z,25.60
2019-05-20T15:20:45.025Z,25.60
2019-05-20T15:23:12.494Z,25.70
2019-05-20T15:25:39.935Z,25.70
2019-05-20T15:28:07.553Z,25.70
2019-05-20T15:30:35.179Z,25.80
2019-05-20T15:33:03.073Z,25.80
2019-05-20T15:35:30.851Z,25.80
2019-05-20T15:38:08.102Z,25.80
2019-05-20T15:40:35.991Z,25.70
2019-05-20T15:45:54.985Z,25.70
2019-05-20T15:48:21.607Z,25.70
2019-05-20T15:50:49.911Z,25.70
2019-05-20T15:53:17.939Z,25.60
2019-05-20T15:55:45.540Z,25.60
2019-05-20T15:58:13.237Z,25.50
2019-05-20T16:00:40.831Z,25.50
2019-05-20T16:03:08.455Z,25.50
2019-05-20T16:05:36.294Z,25.60
2019-05-20T16:08:04.080Z,25.70
2019-05-20T16:10:31.592Z,25.70
2019-05-20T16:13:01.639Z,25.70
2019-05-20T16:15:29.185Z,25.60
2019-05-20T16:17:57.964Z,25.70
2019-05-20T16:20:25.439Z,26.30
2019-05-20T16:22:52.785Z,27.20
2019-05-20T16:25:20.446Z,28.00
2019-05-20T16:27:47.953Z,29.10
2019-05-20T16:30:15.829Z,30.10
2019-05-20T16:32:43.241Z,30.70
2019-05-20T16:35:11.306Z,31.00
2019-05-20T16:37:39.089Z,31.20
2019-05-20T16:40:08.456Z,31.50
2019-05-20T16:42:37.537Z,31.30
2019-05-20T16:45:05.798Z,31.40
2019-05-20T16:47:33.375Z,31.60
2019-05-20T16:50:00.902Z,32.10
2019-05-20T16:52:28.535Z,32.20
2019-05-20T16:54:57.170Z,32.70
2019-05-20T16:57:24.784Z,33.10
2019-05-20T16:59:52.277Z,33.10
2019-05-20T17:02:19.777Z,32.90
2019-05-20T17:04:50.222Z,32.70
2019-05-20T17:07:17.773Z,32.10
2019-05-20T17:09:46.294Z,31.70
2019-05-20T17:12:13.831Z,31.50
2019-05-20T17:14:41.267Z,31.30
2019-05-20T17:17:08.958Z,31.10
2019-05-20T17:19:36.426Z,31.00
2019-05-20T17:22:04.587Z,30.70
2019-05-20T17:24:32.290Z,30.20
2019-05-20T17:26:59.707Z,30.00
2019-05-20T17:29:27.169Z,29.80
2019-05-20T17:31:54.922Z,29.60
2019-05-20T17:34:22.565Z,29.70
2019-05-20T17:36:50.107Z,29.80
2019-05-20T17:39:17.759Z,30.00
2019-05-20T17:41:47.760Z,30.20
2019-05-20T17:44:15.397Z,29.90
2019-05-20T17:46:42.785Z,29.70
2019-05-20T17:49:10.352Z,29.70
2019-05-20T17:51:38.018Z,29.90
2019-05-20T17:54:07.078Z,29.60
2019-05-20T17:56:34.576Z,28.90
2019-05-20T17:59:05.084Z,28.40
2019-05-20T18:01:33.677Z,27.90
2019-05-20T18:04:01.581Z,27.30
2019-05-20T18:06:29.239Z,26.90
2019-05-20T18:08:59.031Z,26.50
2019-05-20T18:11:26.603Z,26.20
2019-05-20T18:13:53.942Z,25.90
2019-05-20T18:16:21.550Z,25.60
2019-05-20T18:18:49.357Z,25.40
2019-05-20T18:21:18.235Z,25.10
2019-05-20T18:23:47.323Z,24.80
2019-05-20T18:26:14.875Z,24.50
2019-05-20T18:28:42.416Z,24.30
2019-05-20T18:31:09.885Z,24.00
2019-05-20T18:33:38.449Z,23.70
2019-05-20T18:36:06.355Z,23.40
2019-05-20T18:38:34.125Z,23.10
2019-05-20T18:41:13.734Z,22.90
2019-05-20T18:43:43.460Z,22.70
2019-05-20T18:46:11.433Z,22.50
2019-05-20T18:48:38.825Z,22.30
2019-05-20T18:51:06.357Z,22.10
2019-05-20T18:53:33.997Z,21.80
2019-05-20T18:56:01.785Z,21.60
2019-05-20T18:58:29.550Z,21.30
2019-05-20T19:00:57.054Z,21.00
2019-05-20T19:03:25.024Z,20.80
2019-05-20T19:05:52.790Z,20.60
2019-05-20T19:08:20.433Z,20.40
2019-05-20T19:10:48.079Z,20.20
2019-05-20T19:13:15.722Z,20.10
2019-05-20T19:15:43.249Z,20.00
2019-05-20T19:18:10.898Z,19.80
2019-05-20T19:20:38.285Z,19.70
2019-05-20T19:23:05.834Z,19.50
2019-05-20T19:25:37.632Z,19.40
2019-05-20T19:28:02.557Z,19.30
2019-05-20T19:30:30.242Z,19.20
2019-05-20T19:32:57.713Z,19.10
2019-05-20T19:35:25.477Z,19.00
2019-05-20T19:37:53.409Z,18.90
2019-05-20T19:40:21.049Z,18.80
2019-05-20T19:42:48.977Z,18.70
2019-05-20T19:45:16.957Z,18.50
2019-05-20T19:47:44.645Z,18.40
2019-05-20T19:50:12.912Z,18.30
2019-05-20T19:52:40.574Z,18.30
2019-05-20T19:55:08.727Z,18.20
2019-05-20T19:57:36.259Z,18.10
2019-05-20T20:00:06.182Z,18.00
2019-05-20T20:02:35.112Z,18.00
2019-05-20T20:05:03.651Z,17.80
2019-05-20T20:07:31.322Z,17.80
2019-05-20T20:09:58.932Z,17.70
2019-05-20T20:12:26.393Z,17.70
2019-05-20T20:14:54.049Z,17.60
2019-05-20T20:17:24.051Z,17.60
2019-05-20T20:19:51.622Z,17.50
2019-05-20T20:22:19.363Z,17.50
2019-05-20T20:24:47.667Z,17.40
2019-05-20T20:27:15.114Z,17.30
2019-05-20T20:29:42.737Z,17.30
2019-05-20T20:32:10.333Z,17.20
2019-05-20T20:34:38.009Z,17.20
2019-05-20T20:37:05.509Z,17.10
2019-05-20T20:39:34.484Z,17.00
2019-05-20T20:42:02.736Z,16.90
2019-05-20T20:44:31.167Z,16.80
2019-05-20T20:46:59.199Z,16.80
2019-05-20T20:49:28.622Z,16.70
2019-05-20T20:51:58.718Z,16.60
2019-05-20T20:54:28.119Z,16.60
2019-05-20T20:56:56.158Z,16.50
2019-05-20T20:59:24.446Z,16.50
2019-05-20T21:01:56.720Z,16.40
2019-05-20T21:04:22.202Z,16.30
2019-05-20T21:06:50.712Z,16.30
2019-05-20T21:09:18.931Z,16.20
2019-05-20T21:11:48.598Z,16.20
2019-05-20T21:14:17.316Z,16.10
2019-05-20T21:16:45.788Z,16.20
2019-05-20T21:19:13.645Z,16.10
2019-05-20T21:21:41.163Z,16.00
2019-05-20T21:24:10.122Z,16.00
2019-05-20T21:26:37.576Z,16.00
2019-05-20T21:29:04.915Z,16.00
2019-05-20T21:31:32.412Z,15.90
2019-05-20T21:33:59.966Z,15.90
2019-05-20T21:36:27.655Z,15.90
2019-05-20T21:38:55.087Z,15.90
2019-05-20T21:41:22.476Z,15.80
2019-05-20T21:43:49.870Z,15.80
2019-05-20T21:46:17.438Z,15.80
2019-05-20T21:48:44.974Z,15.70
2019-05-20T21:51:12.531Z,15.70
2019-05-20T21:53:40.127Z,15.70
2019-05-20T21:56:09.731Z,15.70
2019-05-20T21:58:37.357Z,15.70
2019-05-20T22:01:06.025Z,15.70
2019-05-20T22:03:33.625Z,15.70
2019-05-20T22:06:01.212Z,15.60
2019-05-20T22:08:28.789Z,15.60
2019-05-20T22:10:56.297Z,15.60
2019-05-20T22:13:23.787Z,15.60
2019-05-20T22:15:51.442Z,15.50
2019-05-20T22:18:18.963Z,15.50
2019-05-20T22:20:46.985Z,15.40
2019-05-20T22:23:39.543Z,15.40
2019-05-20T22:26:08.300Z,15.40
2019-05-20T22:28:35.886Z,15.40
2019-05-20T22:31:03.534Z,15.30
2019-05-20T22:33:40.868Z,15.30
2019-05-20T22:36:00.438Z,15.20
2019-05-20T22:38:27.895Z,15.20
2019-05-20T22:40:55.557Z,15.20
2019-05-20T22:43:23.136Z,15.10
2019-05-20T22:45:50.774Z,15.20
2019-05-20T22:48:18.399Z,15.10
2019-05-20T22:50:48.791Z,15.10
2019-05-20T22:53:15.785Z,15.10
2019-05-20T22:55:43.346Z,15.00
2019-05-20T22:58:10.854Z,15.00
2019-05-20T23:00:38.365Z,15.00
2019-05-20T23:03:06.115Z,15.00
2019-05-20T23:05:33.702Z,15.00
2019-05-20T23:08:01.269Z,14.90
2019-05-20T23:10:30.610Z,14.90
2019-05-20T23:12:59.074Z,14.90
2019-05-20T23:15:26.725Z,14.80
2019-05-20T23:17:54.315Z,14.80
2019-05-20T23:20:21.904Z,14.80
2019-05-20T23:22:49.643Z,14.80
2019-05-20T23:25:17.147Z,14.70
2019-05-20T23:27:44.583Z,14.80
2019-05-20T23:30:12.686Z,14.80
2019-05-20T23:32:40.194Z,14.70
2019-05-20T23:35:07.875Z,14.70
2019-05-20T23:37:35.449Z,14.70
2019-05-20T23:40:03.389Z,14.60
2019-05-20T23:42:30.912Z,14.60
2019-05-20T23:44:58.380Z,14.60
2019-05-20T23:47:26.058Z,14.50
2019-05-20T23:49:53.492Z,14.50
2019-05-20T23:52:21.018Z,14.50
2019-05-20T23:54:48.483Z,14.50
2019-05-20T23:57:16.180Z,14.50
2019-05-20T23:59:43.871Z,14.50
